sensor_id;sensor_type;location;lat;lon;timestamp;temperature;humidity
7117;DHT22;3600;48.568;7.870;2023-11-19T00:00:10;9.40;99.90
7117;DHT22;3600;48.568;7.870;2023-11-19T00:02:39;9.40;99.90
7117;DHT22;3600;48.568;7.870;2023-11-19T00:05:07;9.40;99.90
7117;DHT22;3600;48.568;7.870;2023-11-19T00:07:35;9.40;99.90
7117;DHT22;3600;48.568;7.870;2023-11-19T00:10:03;9.40;99.90
7117;DHT22;3600;48.568;7.870;2023-11-19T00:12:41;9.40;99.90
7117;DHT22;3600;48.568;7.870;2023-11-19T00:15:09;9.40;99.90
7117;DHT22;3600;48.568;7.870;2023-11-19T00:17:42;9.50;99.90
7117;DHT22;3600;48.568;7.870;2023-11-19T00:20:18;9.50;99.90
7117;DHT22;3600;48.568;7.870;2023-11-19T00:22:45;9.50;99.90
7117;DHT22;3600;48.568;7.870;2023-11-19T00:25:32;9.50;99.90
7117;DHT22;3600;48.568;7.870;2023-11-19T00:27:59;9.50;99.90
7117;DHT22;3600;48.568;7.870;2023-11-19T00:30:26;9.60;99.90
7117;DHT22;3600;48.568;7.870;2023-11-19T00:32:53;9.60;99.90
7117;DHT22;3600;48.568;7.870;2023-11-19T00:35:20;9.60;99.90
7117;DHT22;3600;48.568;7.870;2023-11-19T00:37:46;9.60;99.90
7117;DHT22;3600;48.568;7.870;2023-11-19T00:40:14;9.70;99.90
7117;DHT22;3600;48.568;7.870;2023-11-19T00:42:44;9.70;99.90
7117;DHT22;3600;48.568;7.870;2023-11-19T00:45:11;9.70;99.90
7117;DHT22;3600;48.568;7.870;2023-11-19T00:47:39;9.70;99.90
7117;DHT22;3600;48.568;7.870;2023-11-19T00:50:07;9.70;99.90
7117;DHT22;3600;48.568;7.870;2023-11-19T00:52:36;9.70;99.90
7117;DHT22;3600;48.568;7.870;2023-11-19T00:55:04;9.70;99.90
7117;DHT22;3600;48.568;7.870;2023-11-19T00:57:31;9.70;99.90
7117;DHT22;3600;48.568;7.870;2023-11-19T01:00:02;9.70;99.90
7117;DHT22;3600;48.568;7.870;2023-11-19T01:02:35;9.70;99.90
7117;DHT22;3600;48.568;7.870;2023-11-19T01:05:03;9.70;99.90
7117;DHT22;3600;48.568;7.870;2023-11-19T01:07:29;9.70;99.90
7117;DHT22;3600;48.568;7.870;2023-11-19T01:09:56;9.70;99.90
7117;DHT22;3600;48.568;7.870;2023-11-19T01:12:23;9.70;99.90
7117;DHT22;3600;48.568;7.870;2023-11-19T01:14:50;9.80;99.90
7117;DHT22;3600;48.568;7.870;2023-11-19T01:17:17;9.80;99.90
7117;DHT22;3600;48.568;7.870;2023-11-19T01:19:44;9.80;99.90
7117;DHT22;3600;48.568;7.870;2023-11-19T01:22:11;9.80;99.90
7117;DHT22;3600;48.568;7.870;2023-11-19T01:24:38;9.80;99.90
7117;DHT22;3600;48.568;7.870;2023-11-19T01:27:04;9.80;99.90
7117;DHT22;3600;48.568;7.870;2023-11-19T01:29:31;9.80;99.90
7117;DHT22;3600;48.568;7.870;2023-11-19T01:31:58;9.80;99.90
7117;DHT22;3600;48.568;7.870;2023-11-19T01:34:25;9.80;99.90
7117;DHT22;3600;48.568;7.870;2023-11-19T01:36:52;9.80;99.90
7117;DHT22;3600;48.568;7.870;2023-11-19T01:39:19;9.90;99.90
7117;DHT22;3600;48.568;7.870;2023-11-19T01:41:47;9.90;99.90
7117;DHT22;3600;48.568;7.870;2023-11-19T01:44:14;9.90;99.90
7117;DHT22;3600;48.568;7.870;2023-11-19T01:46:43;9.90;99.90
7117;DHT22;3600;48.568;7.870;2023-11-19T01:49:11;10.00;99.90
7117;DHT22;3600;48.568;7.870;2023-11-19T01:51:39;9.90;99.90
7117;DHT22;3600;48.568;7.870;2023-11-19T01:54:07;10.00;99.90
7117;DHT22;3600;48.568;7.870;2023-11-19T01:56:35;10.00;99.90
7117;DHT22;3600;48.568;7.870;2023-11-19T01:59:03;10.00;99.90
7117;DHT22;3600;48.568;7.870;2023-11-19T02:01:30;10.00;99.90
7117;DHT22;3600;48.568;7.870;2023-11-19T02:04:01;10.00;99.90
7117;DHT22;3600;48.568;7.870;2023-11-19T02:06:30;10.10;99.90
7117;DHT22;3600;48.568;7.870;2023-11-19T02:08:58;10.10;99.90
7117;DHT22;3600;48.568;7.870;2023-11-19T02:11:25;10.10;99.90
7117;DHT22;3600;48.568;7.870;2023-11-19T02:13:57;10.10;99.90
7117;DHT22;3600;48.568;7.870;2023-11-19T02:16:23;10.10;99.90
7117;DHT22;3600;48.568;7.870;2023-11-19T02:18:50;10.10;99.90
7117;DHT22;3600;48.568;7.870;2023-11-19T02:21:17;10.10;99.90
7117;DHT22;3600;48.568;7.870;2023-11-19T02:23:45;10.20;99.90
7117;DHT22;3600;48.568;7.870;2023-11-19T02:26:53;10.20;99.90
7117;DHT22;3600;48.568;7.870;2023-11-19T02:29:12;10.20;99.90
7117;DHT22;3600;48.568;7.870;2023-11-19T02:31:39;10.20;99.90
7117;DHT22;3600;48.568;7.870;2023-11-19T02:34:06;10.20;99.90
7117;DHT22;3600;48.568;7.870;2023-11-19T02:36:35;10.20;99.90
7117;DHT22;3600;48.568;7.870;2023-11-19T02:39:02;10.20;99.90
7117;DHT22;3600;48.568;7.870;2023-11-19T02:41:28;10.20;99.90
7117;DHT22;3600;48.568;7.870;2023-11-19T02:43:55;10.20;99.90
7117;DHT22;3600;48.568;7.870;2023-11-19T02:46:22;10.20;99.90
7117;DHT22;3600;48.568;7.870;2023-11-19T02:48:49;10.20;99.90
7117;DHT22;3600;48.568;7.870;2023-11-19T02:51:16;10.20;99.90
7117;DHT22;3600;48.568;7.870;2023-11-19T02:53:45;10.20;99.90
7117;DHT22;3600;48.568;7.870;2023-11-19T02:56:15;10.30;99.90
7117;DHT22;3600;48.568;7.870;2023-11-19T02:58:49;10.30;99.90
7117;DHT22;3600;48.568;7.870;2023-11-19T03:01:25;10.30;99.90
7117;DHT22;3600;48.568;7.870;2023-11-19T03:04:00;10.30;99.90
7117;DHT22;3600;48.568;7.870;2023-11-19T03:06:29;10.30;99.90
7117;DHT22;3600;48.568;7.870;2023-11-19T03:08:56;10.30;99.90
7117;DHT22;3600;48.568;7.870;2023-11-19T03:11:23;10.30;99.90
7117;DHT22;3600;48.568;7.870;2023-11-19T03:13:51;10.30;99.90
7117;DHT22;3600;48.568;7.870;2023-11-19T03:16:20;10.30;99.90
7117;DHT22;3600;48.568;7.870;2023-11-19T03:18:47;10.30;99.90
7117;DHT22;3600;48.568;7.870;2023-11-19T03:21:14;10.40;99.90
7117;DHT22;3600;48.568;7.870;2023-11-19T03:23:41;10.40;99.90
7117;DHT22;3600;48.568;7.870;2023-11-19T03:26:10;10.40;99.90
7117;DHT22;3600;48.568;7.870;2023-11-19T03:28:37;10.40;99.90
7117;DHT22;3600;48.568;7.870;2023-11-19T03:31:09;10.40;99.90
7117;DHT22;3600;48.568;7.870;2023-11-19T03:33:36;10.40;99.90
7117;DHT22;3600;48.568;7.870;2023-11-19T03:36:04;10.40;99.90
7117;DHT22;3600;48.568;7.870;2023-11-19T03:38:31;10.50;99.90
7117;DHT22;3600;48.568;7.870;2023-11-19T03:40:58;10.50;99.90
7117;DHT22;3600;48.568;7.870;2023-11-19T03:43:25;10.50;99.90
7117;DHT22;3600;48.568;7.870;2023-11-19T03:45:52;10.50;99.90
7117;DHT22;3600;48.568;7.870;2023-11-19T03:48:19;10.50;99.90
7117;DHT22;3600;48.568;7.870;2023-11-19T03:50:46;10.50;99.90
7117;DHT22;3600;48.568;7.870;2023-11-19T03:53:13;10.50;99.90
7117;DHT22;3600;48.568;7.870;2023-11-19T03:55:40;10.50;99.90
7117;DHT22;3600;48.568;7.870;2023-11-19T03:58:07;10.50;99.90
7117;DHT22;3600;48.568;7.870;2023-11-19T04:00:34;10.50;99.90
7117;DHT22;3600;48.568;7.870;2023-11-19T04:03:00;10.50;99.90
7117;DHT22;3600;48.568;7.870;2023-11-19T04:05:27;10.50;99.90
7117;DHT22;3600;48.568;7.870;2023-11-19T04:07:54;10.50;99.90
7117;DHT22;3600;48.568;7.870;2023-11-19T04:10:22;10.60;99.90
7117;DHT22;3600;48.568;7.870;2023-11-19T04:12:50;10.60;99.90
7117;DHT22;3600;48.568;7.870;2023-11-19T04:15:19;10.60;99.90
7117;DHT22;3600;48.568;7.870;2023-11-19T04:17:46;10.60;99.90
7117;DHT22;3600;48.568;7.870;2023-11-19T04:20:13;10.60;99.90
7117;DHT22;3600;48.568;7.870;2023-11-19T04:22:41;10.70;99.90
7117;DHT22;3600;48.568;7.870;2023-11-19T04:25:08;10.70;99.90
7117;DHT22;3600;48.568;7.870;2023-11-19T04:27:36;10.70;99.90
7117;DHT22;3600;48.568;7.870;2023-11-19T04:30:03;10.70;99.90
7117;DHT22;3600;48.568;7.870;2023-11-19T04:32:31;10.70;99.90
7117;DHT22;3600;48.568;7.870;2023-11-19T04:34:59;10.70;99.90
7117;DHT22;3600;48.568;7.870;2023-11-19T04:37:28;10.70;99.90
7117;DHT22;3600;48.568;7.870;2023-11-19T04:39:55;10.70;99.90
7117;DHT22;3600;48.568;7.870;2023-11-19T04:42:22;10.80;99.90
7117;DHT22;3600;48.568;7.870;2023-11-19T04:44:49;10.80;99.90
7117;DHT22;3600;48.568;7.870;2023-11-19T04:47:16;10.80;99.90
7117;DHT22;3600;48.568;7.870;2023-11-19T04:49:43;10.80;99.90
7117;DHT22;3600;48.568;7.870;2023-11-19T04:52:11;10.80;99.90
7117;DHT22;3600;48.568;7.870;2023-11-19T04:54:42;10.80;99.90
7117;DHT22;3600;48.568;7.870;2023-11-19T04:57:12;10.90;99.90
7117;DHT22;3600;48.568;7.870;2023-11-19T04:59:39;10.90;99.90
7117;DHT22;3600;48.568;7.870;2023-11-19T05:02:08;10.90;99.90
7117;DHT22;3600;48.568;7.870;2023-11-19T05:04:35;10.90;99.90
7117;DHT22;3600;48.568;7.870;2023-11-19T05:07:02;11.00;99.90
7117;DHT22;3600;48.568;7.870;2023-11-19T05:09:29;11.00;99.90
7117;DHT22;3600;48.568;7.870;2023-11-19T05:11:57;11.00;99.90
7117;DHT22;3600;48.568;7.870;2023-11-19T05:14:23;11.00;99.90
7117;DHT22;3600;48.568;7.870;2023-11-19T05:16:51;11.10;99.90
7117;DHT22;3600;48.568;7.870;2023-11-19T05:19:18;11.00;99.90
7117;DHT22;3600;48.568;7.870;2023-11-19T05:21:45;11.00;99.90
7117;DHT22;3600;48.568;7.870;2023-11-19T05:24:12;11.10;99.90
7117;DHT22;3600;48.568;7.870;2023-11-19T05:26:40;11.10;99.90
7117;DHT22;3600;48.568;7.870;2023-11-19T05:29:07;11.10;99.90
7117;DHT22;3600;48.568;7.870;2023-11-19T05:31:34;11.10;99.90
7117;DHT22;3600;48.568;7.870;2023-11-19T05:34:03;11.10;99.90
7117;DHT22;3600;48.568;7.870;2023-11-19T05:36:31;11.10;99.90
7117;DHT22;3600;48.568;7.870;2023-11-19T05:38:58;11.10;99.90
7117;DHT22;3600;48.568;7.870;2023-11-19T05:41:24;11.10;99.90
7117;DHT22;3600;48.568;7.870;2023-11-19T05:43:51;11.10;99.90
7117;DHT22;3600;48.568;7.870;2023-11-19T05:46:18;11.10;99.90
7117;DHT22;3600;48.568;7.870;2023-11-19T05:48:47;11.20;99.90
7117;DHT22;3600;48.568;7.870;2023-11-19T05:51:14;11.20;99.90
7117;DHT22;3600;48.568;7.870;2023-11-19T05:53:42;11.20;99.90
7117;DHT22;3600;48.568;7.870;2023-11-19T05:56:09;11.20;99.90
7117;DHT22;3600;48.568;7.870;2023-11-19T05:58:37;11.20;99.90
7117;DHT22;3600;48.568;7.870;2023-11-19T06:01:05;11.30;99.90
7117;DHT22;3600;48.568;7.870;2023-11-19T06:03:35;11.30;99.90
7117;DHT22;3600;48.568;7.870;2023-11-19T06:06:02;11.30;99.90
7117;DHT22;3600;48.568;7.870;2023-11-19T06:08:30;11.30;99.90
7117;DHT22;3600;48.568;7.870;2023-11-19T06:10:58;11.30;99.90
7117;DHT22;3600;48.568;7.870;2023-11-19T06:13:24;11.30;99.90
7117;DHT22;3600;48.568;7.870;2023-11-19T06:15:52;11.30;99.90
7117;DHT22;3600;48.568;7.870;2023-11-19T06:18:19;11.30;99.90
7117;DHT22;3600;48.568;7.870;2023-11-19T06:20:47;11.40;99.90
7117;DHT22;3600;48.568;7.870;2023-11-19T06:23:14;11.40;99.90
7117;DHT22;3600;48.568;7.870;2023-11-19T06:25:41;11.30;99.90
7117;DHT22;3600;48.568;7.870;2023-11-19T06:28:08;11.40;99.90
7117;DHT22;3600;48.568;7.870;2023-11-19T06:30:35;11.40;99.90
7117;DHT22;3600;48.568;7.870;2023-11-19T06:33:03;11.40;99.90
7117;DHT22;3600;48.568;7.870;2023-11-19T06:35:30;11.40;99.90
7117;DHT22;3600;48.568;7.870;2023-11-19T06:38:03;11.40;99.90
7117;DHT22;3600;48.568;7.870;2023-11-19T06:40:33;11.40;99.90
7117;DHT22;3600;48.568;7.870;2023-11-19T06:43:03;11.50;99.90
7117;DHT22;3600;48.568;7.870;2023-11-19T06:45:31;11.50;99.90
7117;DHT22;3600;48.568;7.870;2023-11-19T06:47:58;11.50;99.90
7117;DHT22;3600;48.568;7.870;2023-11-19T06:50:27;11.50;99.90
7117;DHT22;3600;48.568;7.870;2023-11-19T06:52:54;11.60;99.90
7117;DHT22;3600;48.568;7.870;2023-11-19T06:55:21;11.60;99.90
7117;DHT22;3600;48.568;7.870;2023-11-19T06:57:48;11.60;99.90
7117;DHT22;3600;48.568;7.870;2023-11-19T07:00:15;11.60;99.90
7117;DHT22;3600;48.568;7.870;2023-11-19T07:02:42;11.60;99.90
7117;DHT22;3600;48.568;7.870;2023-11-19T07:05:09;11.60;99.90
7117;DHT22;3600;48.568;7.870;2023-11-19T07:07:36;11.60;99.90
7117;DHT22;3600;48.568;7.870;2023-11-19T07:10:03;11.60;99.90
7117;DHT22;3600;48.568;7.870;2023-11-19T07:12:31;11.70;99.90
7117;DHT22;3600;48.568;7.870;2023-11-19T07:14:58;11.70;99.90
7117;DHT22;3600;48.568;7.870;2023-11-19T07:17:25;11.70;99.90
7117;DHT22;3600;48.568;7.870;2023-11-19T07:19:52;11.70;99.90
7117;DHT22;3600;48.568;7.870;2023-11-19T07:22:18;11.70;99.90
7117;DHT22;3600;48.568;7.870;2023-11-19T07:24:46;11.70;99.90
7117;DHT22;3600;48.568;7.870;2023-11-19T07:27:13;11.80;99.90
7117;DHT22;3600;48.568;7.870;2023-11-19T07:29:40;11.80;99.90
7117;DHT22;3600;48.568;7.870;2023-11-19T07:32:08;11.80;99.90
7117;DHT22;3600;48.568;7.870;2023-11-19T07:34:35;11.80;99.90
7117;DHT22;3600;48.568;7.870;2023-11-19T07:37:02;11.80;99.90
7117;DHT22;3600;48.568;7.870;2023-11-19T07:39:29;11.80;99.90
7117;DHT22;3600;48.568;7.870;2023-11-19T07:41:56;11.90;99.90
7117;DHT22;3600;48.568;7.870;2023-11-19T07:44:23;11.90;99.90
7117;DHT22;3600;48.568;7.870;2023-11-19T07:46:51;11.90;99.90
7117;DHT22;3600;48.568;7.870;2023-11-19T07:49:18;11.90;99.90
7117;DHT22;3600;48.568;7.870;2023-11-19T07:51:44;11.90;99.90
7117;DHT22;3600;48.568;7.870;2023-11-19T07:54:11;11.90;99.90
7117;DHT22;3600;48.568;7.870;2023-11-19T07:56:38;11.90;99.90
7117;DHT22;3600;48.568;7.870;2023-11-19T07:59:05;11.90;99.90
7117;DHT22;3600;48.568;7.870;2023-11-19T08:01:33;12.00;99.90
7117;DHT22;3600;48.568;7.870;2023-11-19T08:04:00;12.00;99.90
7117;DHT22;3600;48.568;7.870;2023-11-19T08:06:29;12.00;99.90
7117;DHT22;3600;48.568;7.870;2023-11-19T08:08:56;12.00;99.90
7117;DHT22;3600;48.568;7.870;2023-11-19T08:11:23;12.00;99.90
7117;DHT22;3600;48.568;7.870;2023-11-19T08:13:49;12.00;99.90
7117;DHT22;3600;48.568;7.870;2023-11-19T08:16:16;12.00;99.90
7117;DHT22;3600;48.568;7.870;2023-11-19T08:18:43;12.10;99.90
7117;DHT22;3600;48.568;7.870;2023-11-19T08:21:10;12.10;99.90
7117;DHT22;3600;48.568;7.870;2023-11-19T08:23:39;12.10;99.90
7117;DHT22;3600;48.568;7.870;2023-11-19T08:26:06;12.10;99.90
7117;DHT22;3600;48.568;7.870;2023-11-19T08:28:34;12.10;99.90
7117;DHT22;3600;48.568;7.870;2023-11-19T08:31:02;12.10;99.90
7117;DHT22;3600;48.568;7.870;2023-11-19T08:33:32;12.10;99.90
7117;DHT22;3600;48.568;7.870;2023-11-19T08:35:58;12.10;99.90
7117;DHT22;3600;48.568;7.870;2023-11-19T08:38:25;12.20;99.90
7117;DHT22;3600;48.568;7.870;2023-11-19T08:40:55;12.20;99.90
7117;DHT22;3600;48.568;7.870;2023-11-19T08:43:27;12.20;99.90
7117;DHT22;3600;48.568;7.870;2023-11-19T08:45:54;12.20;99.90
7117;DHT22;3600;48.568;7.870;2023-11-19T08:48:21;12.20;99.90
7117;DHT22;3600;48.568;7.870;2023-11-19T08:50:48;12.20;99.90
7117;DHT22;3600;48.568;7.870;2023-11-19T08:53:15;12.20;99.90
7117;DHT22;3600;48.568;7.870;2023-11-19T08:55:42;12.20;99.90
7117;DHT22;3600;48.568;7.870;2023-11-19T08:58:09;12.20;99.90
7117;DHT22;3600;48.568;7.870;2023-11-19T09:00:36;12.20;99.90
7117;DHT22;3600;48.568;7.870;2023-11-19T09:03:05;12.20;99.90
7117;DHT22;3600;48.568;7.870;2023-11-19T09:05:32;12.20;99.90
7117;DHT22;3600;48.568;7.870;2023-11-19T09:07:59;12.30;99.90
7117;DHT22;3600;48.568;7.870;2023-11-19T09:10:26;12.30;99.90
7117;DHT22;3600;48.568;7.870;2023-11-19T09:12:54;12.30;99.90
7117;DHT22;3600;48.568;7.870;2023-11-19T09:15:24;12.30;99.90
7117;DHT22;3600;48.568;7.870;2023-11-19T09:17:51;12.30;99.90
7117;DHT22;3600;48.568;7.870;2023-11-19T09:20:18;12.30;99.90
7117;DHT22;3600;48.568;7.870;2023-11-19T09:22:45;12.30;99.90
7117;DHT22;3600;48.568;7.870;2023-11-19T09:25:12;12.30;99.90
7117;DHT22;3600;48.568;7.870;2023-11-19T09:27:44;12.40;99.90
7117;DHT22;3600;48.568;7.870;2023-11-19T09:30:11;12.40;99.90
7117;DHT22;3600;48.568;7.870;2023-11-19T09:32:39;12.40;99.90
7117;DHT22;3600;48.568;7.870;2023-11-19T09:35:07;12.50;99.90
7117;DHT22;3600;48.568;7.870;2023-11-19T09:37:35;12.50;99.90
7117;DHT22;3600;48.568;7.870;2023-11-19T09:40:02;12.50;99.90
7117;DHT22;3600;48.568;7.870;2023-11-19T09:42:31;12.50;99.90
7117;DHT22;3600;48.568;7.870;2023-11-19T09:45:06;12.60;99.90
7117;DHT22;3600;48.568;7.870;2023-11-19T09:47:40;12.60;99.90
7117;DHT22;3600;48.568;7.870;2023-11-19T09:50:08;12.60;99.90
7117;DHT22;3600;48.568;7.870;2023-11-19T09:52:35;12.70;99.90
7117;DHT22;3600;48.568;7.870;2023-11-19T09:55:02;12.70;99.90
7117;DHT22;3600;48.568;7.870;2023-11-19T09:57:31;12.70;99.90
7117;DHT22;3600;48.568;7.870;2023-11-19T09:59:59;12.70;99.90
7117;DHT22;3600;48.568;7.870;2023-11-19T10:02:31;12.70;99.90
7117;DHT22;3600;48.568;7.870;2023-11-19T10:05:04;12.70;99.90
7117;DHT22;3600;48.568;7.870;2023-11-19T10:07:35;12.70;99.90
7117;DHT22;3600;48.568;7.870;2023-11-19T10:10:03;12.70;99.90
7117;DHT22;3600;48.568;7.870;2023-11-19T10:12:30;12.70;99.90
7117;DHT22;3600;48.568;7.870;2023-11-19T10:14:58;12.70;99.90
7117;DHT22;3600;48.568;7.870;2023-11-19T10:17:28;12.70;99.90
7117;DHT22;3600;48.568;7.870;2023-11-19T10:19:59;12.70;99.90
7117;DHT22;3600;48.568;7.870;2023-11-19T10:22:27;12.70;99.90
7117;DHT22;3600;48.568;7.870;2023-11-19T10:24:54;12.70;99.90
7117;DHT22;3600;48.568;7.870;2023-11-19T10:27:24;12.70;99.90
7117;DHT22;3600;48.568;7.870;2023-11-19T10:29:52;12.70;99.90
7117;DHT22;3600;48.568;7.870;2023-11-19T10:32:19;12.70;99.90
7117;DHT22;3600;48.568;7.870;2023-11-19T10:35:04;12.70;99.90
7117;DHT22;3600;48.568;7.870;2023-11-19T10:37:31;12.70;99.90
7117;DHT22;3600;48.568;7.870;2023-11-19T10:39:59;12.70;99.90
7117;DHT22;3600;48.568;7.870;2023-11-19T10:42:26;12.70;99.90
7117;DHT22;3600;48.568;7.870;2023-11-19T10:44:53;12.80;99.90
7117;DHT22;3600;48.568;7.870;2023-11-19T10:47:22;12.80;99.90
7117;DHT22;3600;48.568;7.870;2023-11-19T10:49:52;12.90;99.90
7117;DHT22;3600;48.568;7.870;2023-11-19T10:52:19;13.00;99.90
7117;DHT22;3600;48.568;7.870;2023-11-19T10:54:50;13.20;99.90
7117;DHT22;3600;48.568;7.870;2023-11-19T10:57:21;13.30;99.90
7117;DHT22;3600;48.568;7.870;2023-11-19T10:59:49;13.50;99.90
7117;DHT22;3600;48.568;7.870;2023-11-19T11:02:21;13.60;99.90
7117;DHT22;3600;48.568;7.870;2023-11-19T11:04:51;13.70;99.90
7117;DHT22;3600;48.568;7.870;2023-11-19T11:07:21;13.70;99.90
7117;DHT22;3600;48.568;7.870;2023-11-19T11:10:02;13.70;99.90
7117;DHT22;3600;48.568;7.870;2023-11-19T11:12:36;13.70;99.90
7117;DHT22;3600;48.568;7.870;2023-11-19T11:15:05;13.60;99.90
7117;DHT22;3600;48.568;7.870;2023-11-19T11:17:33;13.60;99.90
7117;DHT22;3600;48.568;7.870;2023-11-19T11:20:01;13.60;99.90
7117;DHT22;3600;48.568;7.870;2023-11-19T11:22:49;13.60;99.90
7117;DHT22;3600;48.568;7.870;2023-11-19T11:25:43;13.70;99.90
7117;DHT22;3600;48.568;7.870;2023-11-19T11:35:03;13.80;99.90
7117;DHT22;3600;48.568;7.870;2023-11-19T11:37:42;13.90;99.90
7117;DHT22;3600;48.568;7.870;2023-11-19T11:40:16;13.90;99.90
7117;DHT22;3600;48.568;7.870;2023-11-19T11:42:45;13.90;99.90
7117;DHT22;3600;48.568;7.870;2023-11-19T11:45:13;14.00;99.90
7117;DHT22;3600;48.568;7.870;2023-11-19T11:50:18;14.10;99.90
7117;DHT22;3600;48.568;7.870;2023-11-19T11:58:26;14.20;99.90
7117;DHT22;3600;48.568;7.870;2023-11-19T12:00:53;14.30;99.90
7117;DHT22;3600;48.568;7.870;2023-11-19T12:03:21;14.40;99.90
7117;DHT22;3600;48.568;7.870;2023-11-19T12:05:49;14.40;99.90
7117;DHT22;3600;48.568;7.870;2023-11-19T12:08:19;14.40;99.90
7117;DHT22;3600;48.568;7.870;2023-11-19T12:10:52;14.40;99.90
7117;DHT22;3600;48.568;7.870;2023-11-19T12:13:21;14.50;99.90
7117;DHT22;3600;48.568;7.870;2023-11-19T12:18:26;14.70;99.90
7117;DHT22;3600;48.568;7.870;2023-11-19T12:20:54;14.80;99.90
7117;DHT22;3600;48.568;7.870;2023-11-19T12:23:22;15.00;99.90
7117;DHT22;3600;48.568;7.870;2023-11-19T12:25:49;15.00;99.90
7117;DHT22;3600;48.568;7.870;2023-11-19T12:28:16;15.00;99.90
7117;DHT22;3600;48.568;7.870;2023-11-19T12:30:44;15.10;99.90
7117;DHT22;3600;48.568;7.870;2023-11-19T12:33:12;15.20;99.90
7117;DHT22;3600;48.568;7.870;2023-11-19T12:35:46;15.30;99.90
7117;DHT22;3600;48.568;7.870;2023-11-19T12:38:38;15.30;99.90
7117;DHT22;3600;48.568;7.870;2023-11-19T12:41:09;15.40;99.90
7117;DHT22;3600;48.568;7.870;2023-11-19T12:43:45;15.50;99.90
7117;DHT22;3600;48.568;7.870;2023-11-19T12:46:22;15.60;99.90
7117;DHT22;3600;48.568;7.870;2023-11-19T12:48:50;15.70;99.90
7117;DHT22;3600;48.568;7.870;2023-11-19T12:51:18;15.70;99.90
7117;DHT22;3600;48.568;7.870;2023-11-19T12:53:53;15.90;99.90
7117;DHT22;3600;48.568;7.870;2023-11-19T12:56:24;15.90;99.90
7117;DHT22;3600;48.568;7.870;2023-11-19T12:58:51;15.90;99.90
7117;DHT22;3600;48.568;7.870;2023-11-19T13:01:19;16.00;99.90
7117;DHT22;3600;48.568;7.870;2023-11-19T13:03:47;16.00;99.90
7117;DHT22;3600;48.568;7.870;2023-11-19T13:06:18;16.10;99.90
7117;DHT22;3600;48.568;7.870;2023-11-19T13:08:49;16.20;99.90
7117;DHT22;3600;48.568;7.870;2023-11-19T13:11:35;16.20;99.90
7117;DHT22;3600;48.568;7.870;2023-11-19T13:14:05;16.30;99.90
7117;DHT22;3600;48.568;7.870;2023-11-19T13:16:37;16.30;99.90
7117;DHT22;3600;48.568;7.870;2023-11-19T13:19:05;16.40;99.90
7117;DHT22;3600;48.568;7.870;2023-11-19T13:21:32;16.40;99.90
7117;DHT22;3600;48.568;7.870;2023-11-19T13:23:59;16.30;99.90
7117;DHT22;3600;48.568;7.870;2023-11-19T13:26:25;16.30;99.90
7117;DHT22;3600;48.568;7.870;2023-11-19T13:28:52;16.30;99.90
7117;DHT22;3600;48.568;7.870;2023-11-19T13:31:19;16.30;99.90
7117;DHT22;3600;48.568;7.870;2023-11-19T13:33:46;16.30;99.90
7117;DHT22;3600;48.568;7.870;2023-11-19T13:36:13;16.30;99.90
7117;DHT22;3600;48.568;7.870;2023-11-19T13:38:43;16.20;99.90
7117;DHT22;3600;48.568;7.870;2023-11-19T13:41:14;16.10;99.90
7117;DHT22;3600;48.568;7.870;2023-11-19T13:43:41;16.00;99.90
7117;DHT22;3600;48.568;7.870;2023-11-19T13:46:07;15.90;99.90
7117;DHT22;3600;48.568;7.870;2023-11-19T13:48:37;15.80;99.90
7117;DHT22;3600;48.568;7.870;2023-11-19T13:51:04;15.80;99.90
7117;DHT22;3600;48.568;7.870;2023-11-19T13:53:31;15.70;99.90
7117;DHT22;3600;48.568;7.870;2023-11-19T13:56:17;15.70;99.90
7117;DHT22;3600;48.568;7.870;2023-11-19T13:58:44;15.60;99.90
7117;DHT22;3600;48.568;7.870;2023-11-19T14:01:11;15.60;99.90
7117;DHT22;3600;48.568;7.870;2023-11-19T14:03:40;15.50;99.90
7117;DHT22;3600;48.568;7.870;2023-11-19T14:06:07;15.40;99.90
7117;DHT22;3600;48.568;7.870;2023-11-19T14:08:35;15.30;99.90
7117;DHT22;3600;48.568;7.870;2023-11-19T14:11:02;15.30;99.90
7117;DHT22;3600;48.568;7.870;2023-11-19T14:13:29;15.30;99.90
7117;DHT22;3600;48.568;7.870;2023-11-19T14:15:56;15.20;99.90
7117;DHT22;3600;48.568;7.870;2023-11-19T14:18:23;15.20;99.90
7117;DHT22;3600;48.568;7.870;2023-11-19T14:20:50;15.10;99.90
7117;DHT22;3600;48.568;7.870;2023-11-19T14:23:17;15.10;99.90
7117;DHT22;3600;48.568;7.870;2023-11-19T14:25:44;15.10;99.90
7117;DHT22;3600;48.568;7.870;2023-11-19T14:28:11;15.10;99.90
7117;DHT22;3600;48.568;7.870;2023-11-19T14:30:38;15.10;99.90
7117;DHT22;3600;48.568;7.870;2023-11-19T14:33:05;15.10;99.90
7117;DHT22;3600;48.568;7.870;2023-11-19T14:35:32;15.00;99.90
7117;DHT22;3600;48.568;7.870;2023-11-19T14:38:00;15.00;99.90
7117;DHT22;3600;48.568;7.870;2023-11-19T14:40:31;15.00;99.90
7117;DHT22;3600;48.568;7.870;2023-11-19T14:43:01;14.90;99.90
7117;DHT22;3600;48.568;7.870;2023-11-19T14:45:28;14.90;99.90
7117;DHT22;3600;48.568;7.870;2023-11-19T14:48:02;14.90;99.90
7117;DHT22;3600;48.568;7.870;2023-11-19T14:50:29;14.90;99.90
7117;DHT22;3600;48.568;7.870;2023-11-19T14:52:55;14.90;99.90
7117;DHT22;3600;48.568;7.870;2023-11-19T14:55:22;14.90;99.90
7117;DHT22;3600;48.568;7.870;2023-11-19T14:57:49;14.80;99.90
7117;DHT22;3600;48.568;7.870;2023-11-19T15:00:31;14.80;99.90
7117;DHT22;3600;48.568;7.870;2023-11-19T15:02:59;14.80;99.90
7117;DHT22;3600;48.568;7.870;2023-11-19T15:05:26;14.80;99.90
7117;DHT22;3600;48.568;7.870;2023-11-19T15:07:55;14.70;99.90
7117;DHT22;3600;48.568;7.870;2023-11-19T15:10:22;14.70;99.90
7117;DHT22;3600;48.568;7.870;2023-11-19T15:12:51;14.60;99.90
7117;DHT22;3600;48.568;7.870;2023-11-19T15:15:20;14.50;99.90
7117;DHT22;3600;48.568;7.870;2023-11-19T15:17:50;14.50;99.90
7117;DHT22;3600;48.568;7.870;2023-11-19T15:20:17;14.40;99.90
7117;DHT22;3600;48.568;7.870;2023-11-19T15:22:45;14.40;99.90
7117;DHT22;3600;48.568;7.870;2023-11-19T15:25:13;14.40;99.90
7117;DHT22;3600;48.568;7.870;2023-11-19T15:27:40;14.40;99.90
7117;DHT22;3600;48.568;7.870;2023-11-19T15:30:07;14.40;99.90
7117;DHT22;3600;48.568;7.870;2023-11-19T15:32:37;14.30;99.90
7117;DHT22;3600;48.568;7.870;2023-11-19T15:35:04;14.20;99.90
7117;DHT22;3600;48.568;7.870;2023-11-19T15:37:34;14.20;99.90
7117;DHT22;3600;48.568;7.870;2023-11-19T15:40:01;14.20;99.90
7117;DHT22;3600;48.568;7.870;2023-11-19T15:42:31;14.10;99.90
7117;DHT22;3600;48.568;7.870;2023-11-19T15:44:57;14.10;99.90
7117;DHT22;3600;48.568;7.870;2023-11-19T15:47:24;14.00;99.90
7117;DHT22;3600;48.568;7.870;2023-11-19T15:49:51;14.00;99.90
7117;DHT22;3600;48.568;7.870;2023-11-19T15:52:18;14.00;99.90
7117;DHT22;3600;48.568;7.870;2023-11-19T15:54:45;13.90;99.90
7117;DHT22;3600;48.568;7.870;2023-11-19T15:57:14;13.90;99.90
7117;DHT22;3600;48.568;7.870;2023-11-19T15:59:41;13.90;99.90
7117;DHT22;3600;48.568;7.870;2023-11-19T16:02:08;13.80;99.90
7117;DHT22;3600;48.568;7.870;2023-11-19T16:04:35;13.80;99.90
7117;DHT22;3600;48.568;7.870;2023-11-19T16:07:02;13.80;99.90
7117;DHT22;3600;48.568;7.870;2023-11-19T16:09:29;13.80;99.90
7117;DHT22;3600;48.568;7.870;2023-11-19T16:11:57;13.70;99.90
7117;DHT22;3600;48.568;7.870;2023-11-19T16:14:24;13.70;99.90
7117;DHT22;3600;48.568;7.870;2023-11-19T16:16:52;13.70;99.90
7117;DHT22;3600;48.568;7.870;2023-11-19T16:19:21;13.60;99.90
7117;DHT22;3600;48.568;7.870;2023-11-19T16:21:48;13.60;99.90
7117;DHT22;3600;48.568;7.870;2023-11-19T16:24:16;13.60;99.90
7117;DHT22;3600;48.568;7.870;2023-11-19T16:26:43;13.60;99.90
7117;DHT22;3600;48.568;7.870;2023-11-19T16:29:10;13.60;99.90